sensor_id;sensor_type;location;lat;lon;timestamp;P1;durP1;ratioP1;P2;durP2;ratioP2
11761;SDS011;5938;47.098;15.474;2022-10-19T00:01:23;34.63;;;27.10;;
11761;SDS011;5938;47.098;15.474;2022-10-19T00:05:26;41.50;;;30.70;;
11761;SDS011;5938;47.098;15.474;2022-10-19T00:09:31;36.57;;;27.53;;
11761;SDS011;5938;47.098;15.474;2022-10-19T00:13:34;39.50;;;28.87;;
11761;SDS011;5938;47.098;15.474;2022-10-19T00:17:38;40.83;;;28.70;;
11761;SDS011;5938;47.098;15.474;2022-10-19T00:21:43;38.83;;;29.10;;
11761;SDS011;5938;47.098;15.474;2022-10-19T00:25:55;36.20;;;26.60;;
11761;SDS011;5938;47.098;15.474;2022-10-19T00:29:58;40.27;;;25.53;;
11761;SDS011;5938;47.098;15.474;2022-10-19T00:34:02;37.93;;;27.53;;
11761;SDS011;5938;47.098;15.474;2022-10-19T00:38:05;38.43;;;28.20;;
11761;SDS011;5938;47.098;15.474;2022-10-19T00:42:11;39.33;;;28.77;;
11761;SDS011;5938;47.098;15.474;2022-10-19T00:46:14;36.40;;;27.90;;
11761;SDS011;5938;47.098;15.474;2022-10-19T00:50:18;34.30;;;24.77;;
11761;SDS011;5938;47.098;15.474;2022-10-19T00:54:21;33.57;;;26.80;;
11761;SDS011;5938;47.098;15.474;2022-10-19T00:58:35;42.90;;;27.77;;
11761;SDS011;5938;47.098;15.474;2022-10-19T01:02:38;34.20;;;25.37;;
11761;SDS011;5938;47.098;15.474;2022-10-19T01:06:41;33.17;;;26.23;;
11761;SDS011;5938;47.098;15.474;2022-10-19T01:10:55;30.80;;;25.77;;
11761;SDS011;5938;47.098;15.474;2022-10-19T01:15:08;33.93;;;24.30;;
11761;SDS011;5938;47.098;15.474;2022-10-19T01:19:26;34.73;;;26.60;;
11761;SDS011;5938;47.098;15.474;2022-10-19T01:23:58;28.70;;;23.83;;
11761;SDS011;5938;47.098;15.474;2022-10-19T01:28:29;32.13;;;22.73;;
11761;SDS011;5938;47.098;15.474;2022-10-19T01:32:58;34.60;;;25.23;;
11761;SDS011;5938;47.098;15.474;2022-10-19T01:37:15;26.60;;;21.00;;
11761;SDS011;5938;47.098;15.474;2022-10-19T01:41:27;32.97;;;24.67;;
11761;SDS011;5938;47.098;15.474;2022-10-19T01:45:37;29.23;;;22.57;;
11761;SDS011;5938;47.098;15.474;2022-10-19T01:49:46;31.80;;;24.80;;
11761;SDS011;5938;47.098;15.474;2022-10-19T01:53:53;32.83;;;22.40;;
11761;SDS011;5938;47.098;15.474;2022-10-19T01:58:01;26.50;;;21.20;;
11761;SDS011;5938;47.098;15.474;2022-10-19T02:02:11;30.40;;;22.90;;
11761;SDS011;5938;47.098;15.474;2022-10-19T02:06:17;36.83;;;23.00;;
11761;SDS011;5938;47.098;15.474;2022-10-19T02:10:21;32.40;;;22.37;;
11761;SDS011;5938;47.098;15.474;2022-10-19T02:14:26;29.37;;;21.70;;
11761;SDS011;5938;47.098;15.474;2022-10-19T02:18:33;27.00;;;21.33;;
11761;SDS011;5938;47.098;15.474;2022-10-19T02:27:52;32.77;;;21.47;;
11761;SDS011;5938;47.098;15.474;2022-10-19T02:31:55;25.47;;;18.57;;
11761;SDS011;5938;47.098;15.474;2022-10-19T02:35:59;33.80;;;22.23;;
11761;SDS011;5938;47.098;15.474;2022-10-19T02:40:05;32.60;;;21.70;;
11761;SDS011;5938;47.098;15.474;2022-10-19T02:44:13;30.13;;;21.03;;
11761;SDS011;5938;47.098;15.474;2022-10-19T02:48:21;32.17;;;22.67;;
11761;SDS011;5938;47.098;15.474;2022-10-19T02:52:26;31.50;;;22.27;;
11761;SDS011;5938;47.098;15.474;2022-10-19T02:56:31;30.90;;;20.50;;
11761;SDS011;5938;47.098;15.474;2022-10-19T03:00:36;25.97;;;19.40;;
11761;SDS011;5938;47.098;15.474;2022-10-19T03:04:39;28.17;;;20.33;;
11761;SDS011;5938;47.098;15.474;2022-10-19T03:08:43;31.33;;;20.20;;
11761;SDS011;5938;47.098;15.474;2022-10-19T03:12:46;30.03;;;21.33;;
11761;SDS011;5938;47.098;15.474;2022-10-19T03:16:51;32.27;;;21.03;;
11761;SDS011;5938;47.098;15.474;2022-10-19T03:21:00;31.90;;;20.70;;
11761;SDS011;5938;47.098;15.474;2022-10-19T03:25:04;26.10;;;19.57;;
11761;SDS011;5938;47.098;15.474;2022-10-19T03:29:08;30.83;;;18.37;;
11761;SDS011;5938;47.098;15.474;2022-10-19T03:33:13;24.00;;;19.07;;
11761;SDS011;5938;47.098;15.474;2022-10-19T03:37:16;22.77;;;18.37;;
11761;SDS011;5938;47.098;15.474;2022-10-19T03:41:20;27.20;;;18.90;;
11761;SDS011;5938;47.098;15.474;2022-10-19T03:45:24;37.20;;;22.63;;
11761;SDS011;5938;47.098;15.474;2022-10-19T03:49:29;34.40;;;22.03;;
11761;SDS011;5938;47.098;15.474;2022-10-19T03:53:37;34.77;;;22.67;;
11761;SDS011;5938;47.098;15.474;2022-10-19T03:57:41;28.87;;;22.43;;
11761;SDS011;5938;47.098;15.474;2022-10-19T04:01:45;28.60;;;22.57;;
11761;SDS011;5938;47.098;15.474;2022-10-19T04:05:49;35.57;;;22.80;;
11761;SDS011;5938;47.098;15.474;2022-10-19T04:09:53;27.20;;;21.30;;
11761;SDS011;5938;47.098;15.474;2022-10-19T04:13:57;40.20;;;31.53;;
11761;SDS011;5938;47.098;15.474;2022-10-19T04:18:01;35.47;;;22.23;;
11761;SDS011;5938;47.098;15.474;2022-10-19T04:22:07;29.93;;;21.30;;
11761;SDS011;5938;47.098;15.474;2022-10-19T04:26:11;37.40;;;29.70;;
11761;SDS011;5938;47.098;15.474;2022-10-19T04:34:20;28.37;;;21.30;;
11761;SDS011;5938;47.098;15.474;2022-10-19T04:38:26;28.13;;;23.17;;
11761;SDS011;5938;47.098;15.474;2022-10-19T04:42:30;26.53;;;21.33;;
11761;SDS011;5938;47.098;15.474;2022-10-19T04:46:33;26.07;;;19.90;;
11761;SDS011;5938;47.098;15.474;2022-10-19T04:50:40;29.60;;;17.77;;
11761;SDS011;5938;47.098;15.474;2022-10-19T04:54:45;22.30;;;16.30;;
11761;SDS011;5938;47.098;15.474;2022-10-19T04:58:52;23.63;;;18.27;;
11761;SDS011;5938;47.098;15.474;2022-10-19T05:03:00;21.70;;;17.10;;
11761;SDS011;5938;47.098;15.474;2022-10-19T05:07:03;22.33;;;17.97;;
11761;SDS011;5938;47.098;15.474;2022-10-19T05:11:09;18.67;;;15.40;;
11761;SDS011;5938;47.098;15.474;2022-10-19T05:15:14;20.37;;;15.30;;
11761;SDS011;5938;47.098;15.474;2022-10-19T05:19:36;32.83;;;16.37;;
11761;SDS011;5938;47.098;15.474;2022-10-19T05:23:40;22.60;;;16.10;;
11761;SDS011;5938;47.098;15.474;2022-10-19T05:27:45;19.00;;;14.37;;
11761;SDS011;5938;47.098;15.474;2022-10-19T05:31:52;33.90;;;23.33;;
11761;SDS011;5938;47.098;15.474;2022-10-19T05:35:56;22.13;;;18.53;;
11761;SDS011;5938;47.098;15.474;2022-10-19T05:39:59;17.53;;;14.97;;
11761;SDS011;5938;47.098;15.474;2022-10-19T05:44:04;19.17;;;15.17;;
11761;SDS011;5938;47.098;15.474;2022-10-19T05:48:08;20.30;;;15.73;;
11761;SDS011;5938;47.098;15.474;2022-10-19T05:52:12;20.90;;;15.67;;
11761;SDS011;5938;47.098;15.474;2022-10-19T05:56:26;16.87;;;13.47;;
11761;SDS011;5938;47.098;15.474;2022-10-19T06:00:40;18.60;;;15.47;;
11761;SDS011;5938;47.098;15.474;2022-10-19T06:04:43;30.53;;;27.30;;
11761;SDS011;5938;47.098;15.474;2022-10-19T06:08:47;25.13;;;21.47;;
11761;SDS011;5938;47.098;15.474;2022-10-19T06:12:59;30.60;;;26.37;;
11761;SDS011;5938;47.098;15.474;2022-10-19T06:17:03;26.40;;;22.70;;
11761;SDS011;5938;47.098;15.474;2022-10-19T06:21:09;20.90;;;18.73;;
11761;SDS011;5938;47.098;15.474;2022-10-19T06:25:13;23.60;;;21.10;;
11761;SDS011;5938;47.098;15.474;2022-10-19T06:29:20;23.33;;;19.93;;
11761;SDS011;5938;47.098;15.474;2022-10-19T06:33:25;25.10;;;20.30;;
11761;SDS011;5938;47.098;15.474;2022-10-19T06:37:30;20.47;;;18.43;;
11761;SDS011;5938;47.098;15.474;2022-10-19T06:41:34;17.73;;;15.90;;
11761;SDS011;5938;47.098;15.474;2022-10-19T06:45:37;23.93;;;15.60;;
11761;SDS011;5938;47.098;15.474;2022-10-19T06:49:44;18.60;;;16.57;;
11761;SDS011;5938;47.098;15.474;2022-10-19T06:53:47;18.80;;;16.63;;
11761;SDS011;5938;47.098;15.474;2022-10-19T06:57:57;22.23;;;15.50;;
11761;SDS011;5938;47.098;15.474;2022-10-19T07:02:02;19.37;;;15.20;;
11761;SDS011;5938;47.098;15.474;2022-10-19T07:06:08;18.87;;;12.30;;
11761;SDS011;5938;47.098;15.474;2022-10-19T07:10:13;15.20;;;11.43;;
11761;SDS011;5938;47.098;15.474;2022-10-19T07:14:16;14.90;;;11.90;;
11761;SDS011;5938;47.098;15.474;2022-10-19T07:18:20;24.73;;;17.37;;
11761;SDS011;5938;47.098;15.474;2022-10-19T07:22:24;28.10;;;21.97;;
11761;SDS011;5938;47.098;15.474;2022-10-19T07:26:28;29.40;;;21.30;;
11761;SDS011;5938;47.098;15.474;2022-10-19T07:30:36;33.13;;;23.80;;
11761;SDS011;5938;47.098;15.474;2022-10-19T07:34:41;31.83;;;24.20;;
11761;SDS011;5938;47.098;15.474;2022-10-19T07:38:45;35.20;;;24.90;;
11761;SDS011;5938;47.098;15.474;2022-10-19T07:42:49;31.93;;;25.00;;
11761;SDS011;5938;47.098;15.474;2022-10-19T07:46:52;29.20;;;22.67;;
11761;SDS011;5938;47.098;15.474;2022-10-19T07:50:55;37.80;;;22.73;;
11761;SDS011;5938;47.098;15.474;2022-10-19T07:55:00;28.87;;;24.40;;
11761;SDS011;5938;47.098;15.474;2022-10-19T07:59:04;29.97;;;22.97;;
11761;SDS011;5938;47.098;15.474;2022-10-19T08:03:07;31.23;;;23.03;;
11761;SDS011;5938;47.098;15.474;2022-10-19T08:07:31;23.07;;;20.77;;
11761;SDS011;5938;47.098;15.474;2022-10-19T08:11:36;23.60;;;20.00;;
11761;SDS011;5938;47.098;15.474;2022-10-19T08:15:40;23.13;;;20.73;;
11761;SDS011;5938;47.098;15.474;2022-10-19T08:19:43;20.90;;;18.40;;
11761;SDS011;5938;47.098;15.474;2022-10-19T08:23:46;21.03;;;18.70;;
11761;SDS011;5938;47.098;15.474;2022-10-19T08:27:51;25.53;;;19.33;;
11761;SDS011;5938;47.098;15.474;2022-10-19T08:31:54;22.80;;;17.87;;
11761;SDS011;5938;47.098;15.474;2022-10-19T08:35:58;19.17;;;16.00;;
11761;SDS011;5938;47.098;15.474;2022-10-19T08:40:02;21.00;;;17.70;;
11761;SDS011;5938;47.098;15.474;2022-10-19T08:44:14;19.30;;;15.57;;
11761;SDS011;5938;47.098;15.474;2022-10-19T08:48:44;17.10;;;14.70;;
11761;SDS011;5938;47.098;15.474;2022-10-19T08:52:48;16.60;;;14.57;;
11761;SDS011;5938;47.098;15.474;2022-10-19T08:56:59;16.60;;;14.80;;
11761;SDS011;5938;47.098;15.474;2022-10-19T09:01:10;17.53;;;14.50;;
11761;SDS011;5938;47.098;15.474;2022-10-19T09:05:19;17.80;;;15.90;;
11761;SDS011;5938;47.098;15.474;2022-10-19T09:09:30;14.90;;;13.37;;
11761;SDS011;5938;47.098;15.474;2022-10-19T09:13:39;17.50;;;13.97;;
11761;SDS011;5938;47.098;15.474;2022-10-19T09:18:07;16.27;;;13.77;;
11761;SDS011;5938;47.098;15.474;2022-10-19T09:22:14;15.40;;;13.77;;
11761;SDS011;5938;47.098;15.474;2022-10-19T09:26:23;14.13;;;12.50;;
11761;SDS011;5938;47.098;15.474;2022-10-19T09:30:29;16.43;;;11.27;;
11761;SDS011;5938;47.098;15.474;2022-10-19T09:34:39;14.07;;;12.60;;
11761;SDS011;5938;47.098;15.474;2022-10-19T09:38:46;12.80;;;11.40;;
11761;SDS011;5938;47.098;15.474;2022-10-19T09:42:50;16.00;;;12.80;;
11761;SDS011;5938;47.098;15.474;2022-10-19T09:47:01;16.57;;;10.97;;
11761;SDS011;5938;47.098;15.474;2022-10-19T09:51:15;12.23;;;11.03;;
11761;SDS011;5938;47.098;15.474;2022-10-19T09:55:22;15.03;;;11.73;;
11761;SDS011;5938;47.098;15.474;2022-10-19T09:59:32;13.43;;;9.80;;
11761;SDS011;5938;47.098;15.474;2022-10-19T10:03:36;10.30;;;8.90;;
11761;SDS011;5938;47.098;15.474;2022-10-19T10:07:42;11.40;;;10.13;;
11761;SDS011;5938;47.098;15.474;2022-10-19T10:11:46;10.10;;;8.43;;
11761;SDS011;5938;47.098;15.474;2022-10-19T10:15:54;11.73;;;10.47;;
11761;SDS011;5938;47.098;15.474;2022-10-19T10:20:03;12.30;;;9.47;;
11761;SDS011;5938;47.098;15.474;2022-10-19T10:24:21;11.83;;;10.50;;
11761;SDS011;5938;47.098;15.474;2022-10-19T10:28:26;11.73;;;10.63;;
11761;SDS011;5938;47.098;15.474;2022-10-19T10:32:31;14.43;;;11.53;;
11761;SDS011;5938;47.098;15.474;2022-10-19T10:36:39;9.37;;;8.03;;
11761;SDS011;5938;47.098;15.474;2022-10-19T10:40:49;13.10;;;11.43;;
11761;SDS011;5938;47.098;15.474;2022-10-19T10:44:54;12.00;;;10.90;;
11761;SDS011;5938;47.098;15.474;2022-10-19T10:48:59;11.00;;;9.90;;
11761;SDS011;5938;47.098;15.474;2022-10-19T10:53:05;10.67;;;8.60;;
11761;SDS011;5938;47.098;15.474;2022-10-19T10:57:33;10.17;;;9.03;;
11761;SDS011;5938;47.098;15.474;2022-10-19T11:01:40;11.53;;;10.50;;
11761;SDS011;5938;47.098;15.474;2022-10-19T11:05:46;11.53;;;9.33;;
11761;SDS011;5938;47.098;15.474;2022-10-19T11:09:54;11.37;;;10.30;;
11761;SDS011;5938;47.098;15.474;2022-10-19T11:14:16;11.13;;;10.03;;
11761;SDS011;5938;47.098;15.474;2022-10-19T11:18:28;10.53;;;9.57;;
11761;SDS011;5938;47.098;15.474;2022-10-19T11:22:37;11.27;;;10.17;;
11761;SDS011;5938;47.098;15.474;2022-10-19T11:26:50;9.87;;;8.87;;
11761;SDS011;5938;47.098;15.474;2022-10-19T11:31:09;11.70;;;10.00;;
11761;SDS011;5938;47.098;15.474;2022-10-19T11:39:44;10.63;;;9.20;;
11761;SDS011;5938;47.098;15.474;2022-10-19T11:44:04;8.80;;;8.00;;
11761;SDS011;5938;47.098;15.474;2022-10-19T11:57:11;8.90;;;8.07;;
11761;SDS011;5938;47.098;15.474;2022-10-19T12:01:24;9.90;;;9.00;;
11761;SDS011;5938;47.098;15.474;2022-10-19T12:05:42;8.90;;;8.10;;
11761;SDS011;5938;47.098;15.474;2022-10-19T12:09:57;9.53;;;8.47;;
11761;SDS011;5938;47.098;15.474;2022-10-19T12:14:10;7.70;;;7.10;;
11761;SDS011;5938;47.098;15.474;2022-10-19T12:18:27;7.60;;;6.90;;
11761;SDS011;5938;47.098;15.474;2022-10-19T12:22:37;12.13;;;7.00;;
11761;SDS011;5938;47.098;15.474;2022-10-19T12:26:42;9.47;;;7.90;;
11761;SDS011;5938;47.098;15.474;2022-10-19T12:30:48;7.50;;;6.80;;
11761;SDS011;5938;47.098;15.474;2022-10-19T12:34:54;7.53;;;5.97;;
11761;SDS011;5938;47.098;15.474;2022-10-19T12:39:08;7.07;;;6.43;;
11761;SDS011;5938;47.098;15.474;2022-10-19T12:43:18;6.30;;;5.70;;
11761;SDS011;5938;47.098;15.474;2022-10-19T12:52:11;6.10;;;5.50;;
11761;SDS011;5938;47.098;15.474;2022-10-19T12:56:20;6.50;;;5.97;;
11761;SDS011;5938;47.098;15.474;2022-10-19T13:00:26;6.20;;;5.70;;
11761;SDS011;5938;47.098;15.474;2022-10-19T13:04:32;5.67;;;5.10;;
11761;SDS011;5938;47.098;15.474;2022-10-19T13:08:40;7.93;;;6.20;;
11761;SDS011;5938;47.098;15.474;2022-10-19T13:12:46;6.23;;;5.00;;
11761;SDS011;5938;47.098;15.474;2022-10-19T13:21:05;6.17;;;4.67;;
11761;SDS011;5938;47.098;15.474;2022-10-19T13:25:19;9.57;;;4.40;;
11761;SDS011;5938;47.098;15.474;2022-10-19T13:29:37;6.00;;;5.40;;
11761;SDS011;5938;47.098;15.474;2022-10-19T13:33:44;6.70;;;6.10;;
11761;SDS011;5938;47.098;15.474;2022-10-19T13:38:10;6.03;;;5.30;;
11761;SDS011;5938;47.098;15.474;2022-10-19T13:42:32;5.27;;;4.53;;
11761;SDS011;5938;47.098;15.474;2022-10-19T13:46:44;5.83;;;5.33;;
11761;SDS011;5938;47.098;15.474;2022-10-19T13:50:55;5.90;;;5.20;;
11761;SDS011;5938;47.098;15.474;2022-10-19T13:59:55;6.20;;;5.47;;
11761;SDS011;5938;47.098;15.474;2022-10-19T14:04:12;4.63;;;4.23;;
11761;SDS011;5938;47.098;15.474;2022-10-19T14:08:39;5.40;;;5.00;;
11761;SDS011;5938;47.098;15.474;2022-10-19T14:13:00;5.53;;;5.03;;
11761;SDS011;5938;47.098;15.474;2022-10-19T14:17:13;7.80;;;4.37;;
11761;SDS011;5938;47.098;15.474;2022-10-19T14:21:31;4.70;;;4.30;;
11761;SDS011;5938;47.098;15.474;2022-10-19T14:25:37;5.40;;;4.90;;
11761;SDS011;5938;47.098;15.474;2022-10-19T14:29:42;7.53;;;5.90;;
11761;SDS011;5938;47.098;15.474;2022-10-19T14:33:54;5.03;;;4.63;;
11761;SDS011;5938;47.098;15.474;2022-10-19T14:38:03;5.40;;;4.90;;
11761;SDS011;5938;47.098;15.474;2022-10-19T14:42:09;6.23;;;4.60;;
11761;SDS011;5938;47.098;15.474;2022-10-19T14:46:13;5.27;;;4.87;;
11761;SDS011;5938;47.098;15.474;2022-10-19T14:50:17;7.17;;;5.03;;
11761;SDS011;5938;47.098;15.474;2022-10-19T14:54:28;5.33;;;4.70;;
11761;SDS011;5938;47.098;15.474;2022-10-19T14:58:38;6.90;;;6.20;;
11761;SDS011;5938;47.098;15.474;2022-10-19T15:02:44;5.17;;;4.67;;
11761;SDS011;5938;47.098;15.474;2022-10-19T15:06:52;5.33;;;4.93;;
11761;SDS011;5938;47.098;15.474;2022-10-19T15:10:58;6.10;;;5.40;;
11761;SDS011;5938;47.098;15.474;2022-10-19T15:15:05;4.50;;;4.10;;
11761;SDS011;5938;47.098;15.474;2022-10-19T15:19:14;4.80;;;4.30;;
11761;SDS011;5938;47.098;15.474;2022-10-19T15:23:28;5.37;;;4.40;;
11761;SDS011;5938;47.098;15.474;2022-10-19T15:27:39;5.37;;;4.87;;
11761;SDS011;5938;47.098;15.474;2022-10-19T15:31:45;5.60;;;4.87;;
11761;SDS011;5938;47.098;15.474;2022-10-19T15:35:49;8.00;;;5.50;;
11761;SDS011;5938;47.098;15.474;2022-10-19T15:39:52;5.83;;;5.33;;
11761;SDS011;5938;47.098;15.474;2022-10-19T15:43:57;5.23;;;4.43;;
11761;SDS011;5938;47.098;15.474;2022-10-19T15:48:15;6.50;;;4.83;;
11761;SDS011;5938;47.098;15.474;2022-10-19T15:52:30;5.60;;;5.00;;
11761;SDS011;5938;47.098;15.474;2022-10-19T15:56:35;5.47;;;4.77;;
11761;SDS011;5938;47.098;15.474;2022-10-19T16:00:41;6.70;;;5.03;;
11761;SDS011;5938;47.098;15.474;2022-10-19T16:04:45;6.60;;;4.77;;
11761;SDS011;5938;47.098;15.474;2022-10-19T16:08:49;8.50;;;5.87;;
11761;SDS011;5938;47.098;15.474;2022-10-19T16:12:54;5.90;;;5.30;;
11761;SDS011;5938;47.098;15.474;2022-10-19T16:16:59;5.83;;;5.27;;
11761;SDS011;5938;47.098;15.474;2022-10-19T16:21:03;7.97;;;5.63;;
11761;SDS011;5938;47.098;15.474;2022-10-19T16:25:07;6.60;;;5.57;;
11761;SDS011;5938;47.098;15.474;2022-10-19T16:29:11;16.67;;;9.40;;
11761;SDS011;5938;47.098;15.474;2022-10-19T16:33:17;8.10;;;6.90;;
11761;SDS011;5938;47.098;15.474;2022-10-19T16:37:21;11.27;;;8.00;;
11761;SDS011;5938;47.098;15.474;2022-10-19T16:41:25;15.97;;;10.30;;
11761;SDS011;5938;47.098;15.474;2022-10-19T16:45:28;6.77;;;5.87;;
11761;SDS011;5938;47.098;15.474;2022-10-19T16:49:33;9.43;;;8.27;;
11761;SDS011;5938;47.098;15.474;2022-10-19T16:53:37;6.80;;;6.10;;
11761;SDS011;5938;47.098;15.474;2022-10-19T16:57:40;7.90;;;5.70;;
11761;SDS011;5938;47.098;15.474;2022-10-19T17:01:44;7.77;;;6.00;;
11761;SDS011;5938;47.098;15.474;2022-10-19T17:05:50;9.70;;;5.90;;
11761;SDS011;5938;47.098;15.474;2022-10-19T17:09:53;8.00;;;6.60;;
11761;SDS011;5938;47.098;15.474;2022-10-19T17:13:58;10.43;;;7.20;;
11761;SDS011;5938;47.098;15.474;2022-10-19T17:18:04;7.67;;;6.87;;
11761;SDS011;5938;47.098;15.474;2022-10-19T17:22:09;10.27;;;9.20;;
11761;SDS011;5938;47.098;15.474;2022-10-19T17:26:16;9.07;;;7.70;;
11761;SDS011;5938;47.098;15.474;2022-10-19T17:30:21;13.60;;;7.70;;
11761;SDS011;5938;47.098;15.474;2022-10-19T17:34:25;9.27;;;7.00;;
11761;SDS011;5938;47.098;15.474;2022-10-19T17:38:31;8.27;;;6.83;;
11761;SDS011;5938;47.098;15.474;2022-10-19T17:42:36;10.60;;;7.47;;
11761;SDS011;5938;47.098;15.474;2022-10-19T17:46:40;6.93;;;6.33;;
11761;SDS011;5938;47.098;15.474;2022-10-19T17:50:46;6.80;;;6.20;;
11761;SDS011;5938;47.098;15.474;2022-10-19T17:55:02;9.60;;;6.40;;
11761;SDS011;5938;47.098;15.474;2022-10-19T17:59:14;7.60;;;6.93;;
11761;SDS011;5938;47.098;15.474;2022-10-19T18:03:36;7.50;;;6.23;;
11761;SDS011;5938;47.098;15.474;2022-10-19T18:07:43;6.10;;;5.20;;
11761;SDS011;5938;47.098;15.474;2022-10-19T18:11:52;6.70;;;6.10;;
11761;SDS011;5938;47.098;15.474;2022-10-19T18:16:11;6.67;;;5.60;;
11761;SDS011;5938;47.098;15.474;2022-10-19T18:20:25;6.73;;;5.47;;
11761;SDS011;5938;47.098;15.474;2022-10-19T18:24:35;8.10;;;5.47;;
11761;SDS011;5938;47.098;15.474;2022-10-19T18:28:47;6.07;;;5.53;;
11761;SDS011;5938;47.098;15.474;2022-10-19T18:32:54;11.03;;;6.37;;
11761;SDS011;5938;47.098;15.474;2022-10-19T18:37:01;6.93;;;5.87;;
11761;SDS011;5938;47.098;15.474;2022-10-19T18:41:07;6.67;;;5.77;;
11761;SDS011;5938;47.098;15.474;2022-10-19T18:45:17;6.60;;;5.57;;
11761;SDS011;5938;47.098;15.474;2022-10-19T18:49:24;11.80;;;6.17;;
11761;SDS011;5938;47.098;15.474;2022-10-19T18:53:31;7.60;;;6.60;;
11761;SDS011;5938;47.098;15.474;2022-10-19T18:57:38;7.43;;;6.57;;
11761;SDS011;5938;47.098;15.474;2022-10-19T19:01:49;8.20;;;7.20;;
11761;SDS011;5938;47.098;15.474;2022-10-19T19:05:58;10.47;;;8.27;;
11761;SDS011;5938;47.098;15.474;2022-10-19T19:10:06;11.80;;;10.47;;
11761;SDS011;5938;47.098;15.474;2022-10-19T19:14:15;12.30;;;9.87;;
11761;SDS011;5938;47.098;15.474;2022-10-19T19:18:25;15.43;;;10.20;;
11761;SDS011;5938;47.098;15.474;2022-10-19T19:22:31;10.47;;;8.90;;
11761;SDS011;5938;47.098;15.474;2022-10-19T19:26:41;11.30;;;7.67;;
11761;SDS011;5938;47.098;15.474;2022-10-19T19:30:50;7.50;;;6.77;;
11761;SDS011;5938;47.098;15.474;2022-10-19T19:34:56;8.20;;;6.80;;
11761;SDS011;5938;47.098;15.474;2022-10-19T19:39:02;6.20;;;5.60;;
11761;SDS011;5938;47.098;15.474;2022-10-19T19:43:10;11.63;;;7.37;;
11761;SDS011;5938;47.098;15.474;2022-10-19T19:47:17;8.27;;;5.57;;
11761;SDS011;5938;47.098;15.474;2022-10-19T19:51:27;6.40;;;5.70;;
11761;SDS011;5938;47.098;15.474;2022-10-19T19:55:33;7.70;;;6.17;;
11761;SDS011;5938;47.098;15.474;2022-10-19T19:59:39;9.13;;;5.90;;
11761;SDS011;5938;47.098;15.474;2022-10-19T20:03:44;7.33;;;6.17;;
11761;SDS011;5938;47.098;15.474;2022-10-19T20:07:51;6.93;;;5.60;;
11761;SDS011;5938;47.098;15.474;2022-10-19T20:11:56;7.63;;;6.20;;
11761;SDS011;5938;47.098;15.474;2022-10-19T20:16:05;7.20;;;6.40;;
11761;SDS011;5938;47.098;15.474;2022-10-19T20:20:11;9.70;;;8.07;;
11761;SDS011;5938;47.098;15.474;2022-10-19T20:24:17;13.83;;;10.13;;
11761;SDS011;5938;47.098;15.474;2022-10-19T20:28:21;8.40;;;7.60;;
11761;SDS011;5938;47.098;15.474;2022-10-19T20:32:26;10.70;;;9.40;;
11761;SDS011;5938;47.098;15.474;2022-10-19T20:36:30;9.80;;;8.83;;
11761;SDS011;5938;47.098;15.474;2022-10-19T20:40:37;11.27;;;9.50;;
11761;SDS011;5938;47.098;15.474;2022-10-19T20:44:43;12.90;;;8.70;;
11761;SDS011;5938;47.098;15.474;2022-10-19T20:48:50;12.13;;;7.53;;
11761;SDS011;5938;47.098;15.474;2022-10-19T20:52:55;14.40;;;8.03;;
11761;SDS011;5938;47.098;15.474;2022-10-19T20:56:59;9.93;;;9.00;;
11761;SDS011;5938;47.098;15.474;2022-10-19T21:01:04;12.00;;;9.00;;
11761;SDS011;5938;47.098;15.474;2022-10-19T21:05:09;16.73;;;8.93;;
11761;SDS011;5938;47.098;15.474;2022-10-19T21:09:13;9.60;;;8.67;;
11761;SDS011;5938;47.098;15.474;2022-10-19T21:13:19;11.27;;;8.07;;
11761;SDS011;5938;47.098;15.474;2022-10-19T21:17:23;12.30;;;7.90;;
11761;SDS011;5938;47.098;15.474;2022-10-19T21:21:27;8.80;;;7.90;;
11761;SDS011;5938;47.098;15.474;2022-10-19T21:25:31;7.93;;;6.50;;
11761;SDS011;5938;47.098;15.474;2022-10-19T21:29:36;9.43;;;7.60;;
11761;SDS011;5938;47.098;15.474;2022-10-19T21:33:39;11.23;;;7.37;;
11761;SDS011;5938;47.098;15.474;2022-10-19T21:37:42;10.73;;;6.93;;
11761;SDS011;5938;47.098;15.474;2022-10-19T21:41:46;10.53;;;6.93;;
11761;SDS011;5938;47.098;15.474;2022-10-19T21:45:51;7.30;;;6.60;;
11761;SDS011;5938;47.098;15.474;2022-10-19T21:49:55;9.00;;;7.07;;
11761;SDS011;5938;47.098;15.474;2022-10-19T21:53:58;28.30;;;7.07;;
11761;SDS011;5938;47.098;15.474;2022-10-19T21:58:02;7.47;;;6.77;;
11761;SDS011;5938;47.098;15.474;2022-10-19T22:02:07;7.10;;;6.23;;
11761;SDS011;5938;47.098;15.474;2022-10-19T22:06:11;9.03;;;6.97;;
11761;SDS011;5938;47.098;15.474;2022-10-19T22:10:14;8.83;;;7.13;;
11761;SDS011;5938;47.098;15.474;2022-10-19T22:14:18;26.43;;;7.40;;
11761;SDS011;5938;47.098;15.474;2022-10-19T22:18:22;10.77;;;6.67;;
11761;SDS011;5938;47.098;15.474;2022-10-19T22:22:26;9.73;;;6.70;;
11761;SDS011;5938;47.098;15.474;2022-10-19T22:26:30;5.87;;;5.27;;
11761;SDS011;5938;47.098;15.474;2022-10-19T22:30:34;8.53;;;6.60;;
11761;SDS011;5938;47.098;15.474;2022-10-19T22:34:44;6.00;;;5.40;;
11761;SDS011;5938;47.098;15.474;2022-10-19T22:38:47;8.17;;;5.93;;
11761;SDS011;5938;47.098;15.474;2022-10-19T22:42:50;9.57;;;5.57;;
11761;SDS011;5938;47.098;15.474;2022-10-19T22:46:54;9.93;;;6.30;;
11761;SDS011;5938;47.098;15.474;2022-10-19T22:51:00;10.63;;;5.40;;
11761;SDS011;5938;47.098;15.474;2022-10-19T22:55:04;5.90;;;5.40;;
11761;SDS011;5938;47.098;15.474;2022-10-19T22:59:08;9.53;;;5.57;;
11761;SDS011;5938;47.098;15.474;2022-10-19T23:03:11;6.27;;;4.90;;
11761;SDS011;5938;47.098;15.474;2022-10-19T23:07:16;8.23;;;4.97;;
11761;SDS011;5938;47.098;15.474;2022-10-19T23:11:20;6.17;;;5.23;;
11761;SDS011;5938;47.098;15.474;2022-10-19T23:15:23;8.20;;;5.67;;
11761;SDS011;5938;47.098;15.474;2022-10-19T23:19:27;5.40;;;4.80;;
11761;SDS011;5938;47.098;15.474;2022-10-19T23:23:32;9.30;;;6.07;;
11761;SDS011;5938;47.098;15.474;2022-10-19T23:27:37;7.47;;;5.37;;
11761;SDS011;5938;47.098;15.474;2022-10-19T23:31:40;5.60;;;4.43;;
11761;SDS011;5938;47.098;15.474;2022-10-19T23:35:44;7.00;;;5.20;;
11761;SDS011;5938;47.098;15.474;2022-10-19T23:39:49;5.83;;;4.67;;
11761;SDS011;5938;47.098;15.474;2022-10-19T23:43:52;6.00;;;5.40;;
11761;SDS011;5938;47.098;15.474;2022-10-19T23:47:56;6.20;;;4.60;;
11761;SDS011;5938;47.098;15.474;2022-10-19T23:51:59;6.13;;;5.07;;
11761;SDS011;5938;47.098;15.474;2022-10-19T23:56:04;4.60;;;4.20;;
